createdAt,value
2023-04-20T00:00:17.806Z,72.43
2023-04-20T00:02:46.397Z,72.38
2023-04-20T00:05:14.116Z,72.61
2023-04-20T00:07:41.752Z,72.73
2023-04-20T00:10:12.168Z,72.97
2023-04-20T00:12:39.891Z,72.94
2023-04-20T00:15:07.827Z,72.82
2023-04-20T00:17:36.662Z,73.12
2023-04-20T00:20:05.358Z,73.29
2023-04-20T00:22:32.982Z,73.07
2023-04-20T00:25:00.574Z,73.38
2023-04-20T00:27:28.876Z,73.85
2023-04-20T00:29:56.570Z,73.72
2023-04-20T00:32:24.295Z,73.63
2023-04-20T00:34:51.879Z,73.78
2023-04-20T00:37:19.432Z,74.23
2023-04-20T00:39:47.246Z,74.01
2023-04-20T00:42:15.146Z,74.12
2023-04-20T00:44:42.679Z,74.00
2023-04-20T00:50:31.780Z,74.19
2023-04-20T00:52:59.667Z,74.43
2023-04-20T00:55:28.472Z,74.56
2023-04-20T00:57:56.445Z,74.66
2023-04-20T01:00:24.463Z,74.46
2023-04-20T01:02:52.143Z,74.58
2023-04-20T01:05:20.561Z,75.02
2023-04-20T01:07:49.611Z,75.30
2023-04-20T01:10:17.185Z,75.23
2023-04-20T01:12:44.999Z,74.89
2023-04-20T01:15:12.724Z,75.20
2023-04-20T01:18:03.783Z,75.31
2023-04-20T01:20:31.593Z,75.25
2023-04-20T01:22:59.116Z,75.29
2023-04-20T01:25:26.750Z,75.89
2023-04-20T01:27:54.236Z,75.76
2023-04-20T01:30:23.059Z,75.63
2023-04-20T01:32:51.444Z,75.84
2023-04-20T01:35:19.148Z,75.64
2023-04-20T01:37:46.729Z,75.90
2023-04-20T01:40:15.228Z,75.84
2023-04-20T01:42:42.838Z,76.00
2023-04-20T01:45:10.597Z,76.08
2023-04-20T01:47:38.205Z,75.91
2023-04-20T01:50:08.593Z,75.89
2023-04-20T01:52:36.236Z,76.03
2023-04-20T01:55:03.944Z,76.52
2023-04-20T01:57:31.640Z,76.52
2023-04-20T01:59:59.179Z,76.32
2023-04-20T02:02:27.860Z,76.42
2023-04-20T02:04:55.616Z,76.59
2023-04-20T02:07:23.237Z,76.32
2023-04-20T02:09:50.897Z,77.19
2023-04-20T02:12:18.454Z,76.70
2023-04-20T02:14:46.140Z,76.76
2023-04-20T02:17:15.097Z,76.72
2023-04-20T02:19:42.829Z,76.58
2023-04-20T02:22:10.691Z,76.50
2023-04-20T02:24:38.436Z,76.50
2023-04-20T02:27:06.029Z,76.64
2023-04-20T02:29:33.555Z,76.09
2023-04-20T02:32:01.270Z,76.01
2023-04-20T02:34:28.795Z,75.79
2023-04-20T02:36:57.743Z,75.81
2023-04-20T02:39:25.764Z,75.72
2023-04-20T02:41:55.075Z,75.91
2023-04-20T02:44:22.719Z,75.78
2023-04-20T02:46:51.117Z,75.96
2023-04-20T02:49:19.663Z,75.96
2023-04-20T02:51:47.716Z,76.10
2023-04-20T02:54:15.347Z,75.85
2023-04-20T02:56:43.032Z,75.90
2023-04-20T02:59:11.176Z,76.13
2023-04-20T03:01:38.865Z,75.92
2023-04-20T03:04:13.419Z,76.07
2023-04-20T03:06:50.736Z,76.07
2023-04-20T03:09:25.483Z,75.88
2023-04-20T03:12:02.380Z,76.16
2023-04-20T03:14:44.610Z,76.28
2023-04-20T03:17:12.536Z,76.04
2023-04-20T03:19:40.779Z,76.26
2023-04-20T03:22:11.332Z,76.14
2023-04-20T03:24:39.004Z,76.65
2023-04-20T03:27:17.361Z,76.20
2023-04-20T03:30:03.536Z,76.34
2023-04-20T03:32:34.351Z,76.38
2023-04-20T03:35:02.108Z,76.80
2023-04-20T03:37:29.770Z,76.62
2023-04-20T03:39:57.323Z,77.07
2023-04-20T03:42:26.082Z,76.62
2023-04-20T03:44:55.560Z,76.75
2023-04-20T03:47:23.157Z,76.87
2023-04-20T03:49:53.763Z,77.22
2023-04-20T03:52:21.622Z,76.97
2023-04-20T03:54:49.373Z,76.61
2023-04-20T03:57:17.843Z,76.50
2023-04-20T03:59:48.627Z,76.77
2023-04-20T04:11:32.715Z,76.48
2023-04-20T04:14:01.277Z,76.67
2023-04-20T04:16:29.732Z,76.90
2023-04-20T04:18:57.562Z,76.78
2023-04-20T04:21:25.567Z,76.82
2023-04-20T04:23:59.244Z,76.91
2023-04-20T04:26:58.624Z,77.31
2023-04-20T04:29:27.968Z,76.86
2023-04-20T04:31:59.019Z,77.43
2023-04-20T04:34:29.968Z,77.56
2023-04-20T04:36:58.117Z,77.41
2023-04-20T04:39:37.542Z,77.81
2023-04-20T04:42:13.220Z,77.37
2023-04-20T04:44:43.683Z,77.51
2023-04-20T04:47:17.701Z,77.56
2023-04-20T04:49:47.323Z,77.53
2023-04-20T04:52:17.724Z,78.09
2023-04-20T04:54:45.324Z,77.89
2023-04-20T04:57:12.926Z,78.65
2023-04-20T04:59:40.865Z,78.62
2023-04-20T05:02:08.450Z,78.05
2023-04-20T05:04:36.227Z,78.59
2023-04-20T05:07:03.948Z,78.48
2023-04-20T05:09:33.695Z,78.16
2023-04-20T05:12:01.235Z,78.26
2023-04-20T05:14:29.110Z,78.58
2023-04-20T05:16:56.748Z,78.50
2023-04-20T05:19:24.398Z,78.99
2023-04-20T05:21:51.992Z,78.87
2023-04-20T05:24:19.632Z,78.22
2023-04-20T05:26:47.215Z,78.55
2023-04-20T05:29:16.499Z,79.19
2023-04-20T05:31:45.320Z,78.87
2023-04-20T05:34:12.967Z,78.97
2023-04-20T05:36:41.281Z,78.43
2023-04-20T05:39:09.157Z,77.95
2023-04-20T05:41:36.662Z,78.42
2023-04-20T05:44:04.289Z,77.49
2023-04-20T05:46:31.827Z,77.67
2023-04-20T05:48:59.403Z,77.65
2023-04-20T05:51:30.489Z,77.30
2023-04-20T05:53:58.373Z,77.07
2023-04-20T05:56:25.874Z,77.01
2023-04-20T05:58:54.887Z,76.75
2023-04-20T06:01:22.441Z,76.85
2023-04-20T06:03:50.283Z,76.76
2023-04-20T06:06:17.982Z,76.25
2023-04-20T06:08:45.608Z,75.88
2023-04-20T06:11:13.173Z,75.52
2023-04-20T06:13:40.699Z,75.13
2023-04-20T06:16:11.016Z,74.56
2023-04-20T06:18:38.880Z,74.07
2023-04-20T06:21:10.294Z,73.36
2023-04-20T06:23:38.406Z,72.89
2023-04-20T06:26:08.923Z,71.46
2023-04-20T06:28:39.721Z,70.65
2023-04-20T06:31:07.807Z,69.60
2023-04-20T06:33:35.689Z,68.15
2023-04-20T06:36:07.340Z,66.42
2023-04-20T06:38:34.902Z,65.13
2023-04-20T06:41:02.889Z,63.73
2023-04-20T06:43:31.168Z,61.37
2023-04-20T06:45:59.352Z,59.97
2023-04-20T06:48:31.682Z,58.93
2023-04-20T06:51:01.814Z,57.95
2023-04-20T06:53:29.353Z,56.29
2023-04-20T06:55:57.306Z,54.59
2023-04-20T06:58:25.167Z,54.12
2023-04-20T07:00:52.788Z,53.13
2023-04-20T07:03:20.671Z,51.79
2023-04-20T07:05:48.415Z,50.57
2023-04-20T07:08:16.213Z,49.94
2023-04-20T07:10:43.867Z,49.08
2023-04-20T07:13:11.424Z,48.78
2023-04-20T07:15:38.968Z,47.74
2023-04-20T07:18:06.727Z,46.86
2023-04-20T07:20:34.370Z,46.39
2023-04-20T07:23:01.910Z,46.35
2023-04-20T07:25:31.654Z,45.80
2023-04-20T07:27:59.479Z,44.68
2023-04-20T07:30:27.235Z,44.44
2023-04-20T07:32:54.885Z,44.22
2023-04-20T07:35:22.730Z,43.40
2023-04-20T07:37:50.674Z,43.02
2023-04-20T07:40:18.386Z,42.36
2023-04-20T07:42:46.088Z,42.00
2023-04-20T07:48:12.537Z,41.57
2023-04-20T07:50:40.598Z,40.93
2023-04-20T07:53:08.305Z,41.10
2023-04-20T07:55:36.137Z,40.42
2023-04-20T07:58:03.780Z,39.84
2023-04-20T08:00:31.298Z,39.33
2023-04-20T08:02:59.531Z,38.96
2023-04-20T08:05:27.751Z,38.83
2023-04-20T08:07:55.351Z,38.37
2023-04-20T08:10:23.180Z,38.22
2023-04-20T08:13:08.964Z,37.71
2023-04-20T08:15:39.554Z,37.30
2023-04-20T08:18:07.169Z,36.94
2023-04-20T08:20:34.869Z,36.78
2023-04-20T08:23:02.683Z,36.09
2023-04-20T08:25:32.397Z,35.66
2023-04-20T08:28:00.031Z,35.62
2023-04-20T08:30:27.674Z,35.47
2023-04-20T08:32:55.286Z,34.88
2023-04-20T08:35:23.130Z,33.98
2023-04-20T08:37:50.807Z,33.18
2023-04-20T08:40:20.165Z,32.45
2023-04-20T08:42:47.744Z,32.14
2023-04-20T08:45:15.331Z,32.04
2023-04-20T08:47:43.185Z,31.82
2023-04-20T08:50:11.395Z,31.36
2023-04-20T08:52:39.831Z,30.94
2023-04-20T08:55:08.072Z,30.65
2023-04-20T08:57:35.582Z,30.32
2023-04-20T09:00:13.871Z,30.34
2023-04-20T09:02:50.968Z,30.41
2023-04-20T09:05:29.687Z,30.04
2023-04-20T09:08:06.518Z,29.61
2023-04-20T09:11:17.798Z,29.66
2023-04-20T09:13:49.889Z,29.83
2023-04-20T09:16:17.854Z,29.10
2023-04-20T09:18:56.274Z,28.49
2023-04-20T09:21:31.569Z,28.93
2023-04-20T09:24:08.774Z,28.26
2023-04-20T09:26:57.804Z,28.14
2023-04-20T09:35:41.165Z,27.52
2023-04-20T09:38:09.905Z,27.50
2023-04-20T09:40:38.081Z,27.26
2023-04-20T09:43:46.058Z,27.20
2023-04-20T09:46:13.894Z,27.53
2023-04-20T09:48:41.690Z,27.18
2023-04-20T09:51:09.456Z,26.76
2023-04-20T09:53:37.292Z,27.24
2023-04-20T09:56:06.985Z,27.07
2023-04-20T09:58:35.207Z,27.17
2023-04-20T10:01:02.817Z,27.66
2023-04-20T10:03:30.814Z,27.96
2023-04-20T10:05:58.551Z,27.93
2023-04-20T10:08:26.695Z,27.87
2023-04-20T10:10:54.283Z,28.06
2023-04-20T10:13:33.530Z,27.64
2023-04-20T10:16:01.247Z,28.01
2023-04-20T10:18:29.190Z,27.75
2023-04-20T10:21:11.041Z,27.09
2023-04-20T10:23:52.079Z,26.55
2023-04-20T10:26:19.927Z,26.03
2023-04-20T10:28:47.757Z,26.17
2023-04-20T10:31:17.142Z,25.56
2023-04-20T10:33:55.693Z,25.60
2023-04-20T10:36:31.372Z,25.38
2023-04-20T10:39:01.581Z,24.61
2023-04-20T10:41:29.181Z,24.57
2023-04-20T10:44:07.543Z,24.81
2023-04-20T10:46:35.410Z,24.14
2023-04-20T10:49:03.711Z,24.15
2023-04-20T10:51:31.648Z,24.15
2023-04-20T10:54:08.177Z,24.62
2023-04-20T10:56:46.768Z,25.30
2023-04-20T10:59:22.509Z,24.81
2023-04-20T11:01:51.331Z,24.95
2023-04-20T11:04:19.369Z,23.67
2023-04-20T11:06:48.595Z,23.13
2023-04-20T11:09:26.701Z,23.40
2023-04-20T11:12:05.761Z,22.97
2023-04-20T11:14:50.383Z,22.66
2023-04-20T11:17:18.147Z,22.12
2023-04-20T11:19:47.163Z,22.05
2023-04-20T11:22:23.088Z,21.80
2023-04-20T11:24:50.745Z,21.64
2023-04-20T11:27:24.876Z,21.61
2023-04-20T11:29:59.686Z,21.10
2023-04-20T11:32:27.542Z,20.86
2023-04-20T11:35:07.536Z,20.62
2023-04-20T11:37:47.816Z,20.34
2023-04-20T11:40:15.517Z,20.99
2023-04-20T11:42:43.949Z,20.19
2023-04-20T11:45:11.796Z,20.59
2023-04-20T11:47:41.614Z,20.23
2023-04-20T11:50:10.475Z,20.07
2023-04-20T11:52:38.130Z,20.13
2023-04-20T11:55:06.307Z,19.52
2023-04-20T11:57:34.726Z,19.50
2023-04-20T12:00:02.428Z,19.40
2023-04-20T12:02:41.567Z,19.97
2023-04-20T12:05:09.800Z,19.33
2023-04-20T12:07:37.426Z,20.29
2023-04-20T12:10:06.407Z,20.23
2023-04-20T12:12:34.566Z,20.27
2023-04-20T12:15:02.196Z,20.31
2023-04-20T12:17:29.776Z,20.32
2023-04-20T12:19:58.043Z,20.23
2023-04-20T12:22:25.645Z,19.66
2023-04-20T12:24:53.240Z,19.63
2023-04-20T12:27:20.796Z,19.37
2023-04-20T12:29:48.607Z,19.95
2023-04-20T12:32:16.143Z,20.04
2023-04-20T12:34:45.646Z,19.49
2023-04-20T12:37:15.978Z,20.01
2023-04-20T12:39:43.581Z,20.00
2023-04-20T12:42:11.071Z,19.99
2023-04-20T12:44:38.635Z,20.31
2023-04-20T12:47:06.473Z,20.55
2023-04-20T12:49:34.301Z,20.08
2023-04-20T12:52:02.012Z,20.21
2023-04-20T12:54:29.638Z,20.13
2023-04-20T12:56:57.192Z,19.89
2023-04-20T12:59:24.822Z,19.53
2023-04-20T13:01:52.461Z,20.01
2023-04-20T13:04:20.494Z,19.81
2023-04-20T13:06:49.226Z,19.93
2023-04-20T13:09:16.889Z,20.28
2023-04-20T13:11:44.777Z,20.34
2023-04-20T13:14:12.441Z,20.18
2023-04-20T13:16:40.569Z,20.19
2023-04-20T13:19:08.205Z,20.10
2023-04-20T13:21:35.917Z,20.02
2023-04-20T13:24:03.793Z,20.31
2023-04-20T13:26:31.703Z,20.01
2023-04-20T13:28:59.421Z,20.05
2023-04-20T13:31:27.275Z,20.17
2023-04-20T13:33:55.045Z,20.08
2023-04-20T13:36:28.355Z,20.37
2023-04-20T13:38:56.519Z,20.42
2023-04-20T13:41:24.091Z,20.52
2023-04-20T13:43:51.736Z,20.65
2023-04-20T13:46:20.254Z,20.44
2023-04-20T13:48:47.938Z,20.46
2023-04-20T13:51:15.495Z,20.43
2023-04-20T13:53:43.204Z,20.64
2023-04-20T13:56:11.011Z,20.84
2023-04-20T13:58:38.624Z,20.75
2023-04-20T14:01:11.251Z,21.09
2023-04-20T14:03:39.174Z,21.08
2023-04-20T14:06:06.918Z,21.35
2023-04-20T14:08:34.529Z,21.68
2023-04-20T14:11:02.476Z,21.58
2023-04-20T14:13:30.039Z,21.61
2023-04-20T14:15:57.755Z,21.67
2023-04-20T14:18:25.808Z,22.00
2023-04-20T14:20:53.475Z,22.13
2023-04-20T14:23:20.998Z,22.27
2023-04-20T14:25:48.587Z,22.50
2023-04-20T14:28:17.808Z,22.85
2023-04-20T14:30:48.508Z,23.12
2023-04-20T14:33:16.307Z,24.16
2023-04-20T14:35:43.941Z,24.84
2023-04-20T14:38:11.679Z,25.20
2023-04-20T14:40:39.312Z,25.67
2023-04-20T14:43:06.912Z,26.41
2023-04-20T14:45:34.495Z,26.32
2023-04-20T14:48:02.129Z,26.38
2023-04-20T14:50:29.684Z,26.67
2023-04-20T14:52:57.971Z,26.93
2023-04-20T14:55:26.209Z,27.11
2023-04-20T14:57:55.435Z,27.39
2023-04-20T15:00:24.741Z,27.51
2023-04-20T15:02:53.171Z,27.76
2023-04-20T15:05:21.014Z,27.85
2023-04-20T15:07:50.970Z,28.27
2023-04-20T15:10:20.505Z,28.46
2023-04-20T15:12:48.777Z,28.50
2023-04-20T15:15:17.155Z,29.32
2023-04-20T15:17:47.519Z,29.18
2023-04-20T15:20:15.649Z,29.17
2023-04-20T15:22:44.002Z,29.70
2023-04-20T15:25:11.850Z,29.95
2023-04-20T15:27:39.528Z,29.83
2023-04-20T15:30:07.947Z,30.08
2023-04-20T15:32:35.593Z,30.45
2023-04-20T15:35:03.591Z,30.83
2023-04-20T15:37:31.475Z,31.14
2023-04-20T15:39:59.291Z,31.37
2023-04-20T15:42:27.654Z,31.54
2023-04-20T15:44:55.433Z,31.43
2023-04-20T15:47:22.984Z,31.36
2023-04-20T15:49:50.608Z,31.65
2023-04-20T15:52:18.143Z,31.28
2023-04-20T15:54:47.173Z,31.75
2023-04-20T15:57:14.753Z,31.68
2023-04-20T15:59:42.432Z,31.42
2023-04-20T16:02:10.036Z,31.57
2023-04-20T16:04:37.740Z,31.50
2023-04-20T16:07:05.552Z,31.16
2023-04-20T16:09:33.096Z,31.29
2023-04-20T16:12:03.110Z,31.01
2023-04-20T16:14:30.904Z,31.05
2023-04-20T16:17:02.631Z,31.15
2023-04-20T16:19:31.656Z,31.14
2023-04-20T16:21:59.290Z,31.20
2023-04-20T16:24:27.108Z,31.28
2023-04-20T16:26:57.160Z,31.42
2023-04-20T16:29:24.727Z,31.39
2023-04-20T16:31:52.536Z,31.43
2023-04-20T16:34:20.443Z,31.10
2023-04-20T16:36:50.237Z,31.08
2023-04-20T16:39:18.676Z,31.02
2023-04-20T16:41:46.539Z,30.83
2023-04-20T16:44:14.601Z,31.08
2023-04-20T16:46:42.383Z,31.15
2023-04-20T16:49:10.183Z,31.08
2023-04-20T16:51:38.071Z,31.44
2023-04-20T16:54:05.809Z,31.45
2023-04-20T16:56:33.369Z,31.69
2023-04-20T16:59:01.099Z,31.55
2023-04-20T17:01:28.687Z,31.39
2023-04-20T17:03:56.435Z,31.82
2023-04-20T17:06:24.044Z,31.83
2023-04-20T17:08:51.882Z,31.69
2023-04-20T17:11:19.863Z,31.81
2023-04-20T17:13:47.473Z,31.64
2023-04-20T17:16:15.064Z,31.62
2023-04-20T17:18:42.654Z,31.50
2023-04-20T17:21:10.174Z,31.50
2023-04-20T17:23:37.772Z,31.75
2023-04-20T17:26:06.796Z,32.05
2023-04-20T17:28:34.436Z,32.13
2023-04-20T17:31:01.960Z,32.12
2023-04-20T17:33:29.968Z,32.00
2023-04-20T17:35:57.621Z,32.16
2023-04-20T17:38:25.183Z,32.23
2023-04-20T17:40:52.864Z,32.30
2023-04-20T17:43:20.513Z,32.09
2023-04-20T17:45:51.129Z,32.37
2023-04-20T17:48:18.795Z,32.05
2023-04-20T17:50:50.554Z,32.45
2023-04-20T17:53:18.229Z,32.73
2023-04-20T17:55:45.970Z,32.72
2023-04-20T17:58:13.715Z,32.90
2023-04-20T18:00:41.278Z,33.12
2023-04-20T18:03:09.521Z,33.49
2023-04-20T18:05:37.211Z,33.39
2023-04-20T18:08:05.105Z,33.62
2023-04-20T18:10:34.148Z,33.60
2023-04-20T18:13:01.747Z,33.65
2023-04-20T18:15:29.451Z,34.01
2023-04-20T18:17:57.108Z,33.76
2023-04-20T18:20:24.727Z,34.21
2023-04-20T18:22:52.368Z,34.40
2023-04-20T18:25:20.274Z,34.44
2023-04-20T18:27:47.905Z,34.24
2023-04-20T18:30:16.272Z,34.47
2023-04-20T18:32:44.072Z,34.70
2023-04-20T18:35:11.708Z,34.47
2023-04-20T18:37:39.380Z,34.63
2023-04-20T18:40:07.830Z,34.68
2023-04-20T18:42:35.414Z,34.90
2023-04-20T18:45:03.626Z,35.12
2023-04-20T18:47:32.019Z,35.03
2023-04-20T18:49:59.602Z,35.42
2023-04-20T18:52:27.226Z,35.16
2023-04-20T18:54:55.594Z,35.53
2023-04-20T19:29:07.755Z,38.58
2023-04-20T19:31:38.002Z,38.20
2023-04-20T19:34:06.482Z,38.97
2023-04-20T19:36:34.631Z,38.81
2023-04-20T19:39:02.522Z,38.60
2023-04-20T19:41:30.095Z,38.90
2023-04-20T19:43:59.678Z,39.29
2023-04-20T19:46:27.425Z,39.19
2023-04-20T19:48:54.983Z,39.11
2023-04-20T19:51:25.469Z,39.79
2023-04-20T19:53:53.389Z,39.73
2023-04-20T19:56:21.013Z,40.35
2023-04-20T19:58:48.652Z,39.92
2023-04-20T20:01:16.418Z,40.92
2023-04-20T20:03:44.283Z,40.53
2023-04-20T20:06:12.427Z,40.98
2023-04-20T20:08:49.238Z,41.62
2023-04-20T20:11:16.957Z,41.71
2023-04-20T20:14:25.109Z,41.64
2023-04-20T20:16:52.756Z,41.77
2023-04-20T20:19:38.630Z,42.04
2023-04-20T20:22:06.674Z,42.16
2023-04-20T20:24:48.036Z,42.54
2023-04-20T20:27:18.594Z,42.30
2023-04-20T20:29:46.194Z,42.51
2023-04-20T20:32:13.704Z,42.55
2023-04-20T20:34:42.848Z,42.59
2023-04-20T20:37:10.572Z,43.16
2023-04-20T20:39:38.176Z,43.23
2023-04-20T20:42:07.129Z,43.67
2023-04-20T20:44:39.748Z,44.30
2023-04-20T20:51:20.916Z,44.22
2023-04-20T20:53:48.501Z,44.63
2023-04-20T20:56:16.202Z,44.63
2023-04-20T20:58:43.734Z,45.00
2023-04-20T21:01:11.347Z,45.19
2023-04-20T21:03:39.281Z,45.39
2023-04-20T21:06:07.019Z,45.56
2023-04-20T21:08:34.701Z,45.50
2023-04-20T21:11:02.488Z,45.22
2023-04-20T21:13:30.069Z,45.64
2023-04-20T21:15:57.937Z,46.48
2023-04-20T21:18:25.640Z,46.93
2023-04-20T21:20:53.228Z,46.53
2023-04-20T21:23:20.827Z,47.21
2023-04-20T21:25:48.474Z,47.48
2023-04-20T21:28:16.049Z,47.94
2023-04-20T21:30:43.572Z,48.09
2023-04-20T21:33:11.341Z,47.95
2023-04-20T21:35:38.905Z,48.08
2023-04-20T21:38:06.466Z,48.15
2023-04-20T21:40:34.347Z,48.00
2023-04-20T21:43:02.063Z,47.86
2023-04-20T21:45:29.646Z,48.05
2023-04-20T21:47:57.524Z,48.18
2023-04-20T21:50:27.193Z,48.66
2023-04-20T21:52:55.289Z,48.36
2023-04-20T21:55:22.788Z,48.73
2023-04-20T21:57:50.968Z,48.32
2023-04-20T22:00:18.739Z,48.59
2023-04-20T22:02:46.541Z,48.99
2023-04-20T22:05:14.208Z,48.94
2023-04-20T22:07:41.905Z,49.41
2023-04-20T22:10:09.867Z,49.50
2023-04-20T22:12:40.881Z,49.66
2023-04-20T22:15:13.644Z,50.04
2023-04-20T22:17:42.097Z,50.61
2023-04-20T22:20:11.339Z,50.37
2023-04-20T22:22:39.487Z,50.74
2023-04-20T22:25:08.676Z,50.95
2023-04-20T22:27:37.820Z,51.07
2023-04-20T22:30:06.618Z,50.85
2023-04-20T22:32:34.183Z,51.34
2023-04-20T22:35:02.014Z,51.50
2023-04-20T22:37:29.604Z,51.90
2023-04-20T22:39:57.169Z,52.04
2023-04-20T22:42:24.762Z,53.22
2023-04-20T22:45:11.855Z,53.82
2023-04-20T22:47:54.638Z,54.29
2023-04-20T22:50:22.502Z,54.59
2023-04-20T22:52:50.548Z,54.57
2023-04-20T22:55:18.158Z,55.67
2023-04-20T22:57:45.742Z,55.68
2023-04-20T23:00:14.600Z,55.93
2023-04-20T23:02:45.208Z,56.57
2023-04-20T23:05:12.912Z,56.81
2023-04-20T23:07:40.508Z,57.10
2023-04-20T23:10:09.141Z,57.71
2023-04-20T23:12:36.898Z,57.90
2023-04-20T23:15:06.076Z,57.79
2023-04-20T23:17:33.642Z,58.59
2023-04-20T23:20:01.135Z,58.33
2023-04-20T23:22:28.613Z,58.83
2023-04-20T23:24:57.528Z,58.89
2023-04-20T23:27:25.131Z,59.04
2023-04-20T23:29:52.682Z,59.27
2023-04-20T23:32:20.298Z,59.33
2023-04-20T23:34:47.855Z,59.34
2023-04-20T23:37:15.949Z,59.60
2023-04-20T23:39:43.441Z,59.67
2023-04-20T23:42:12.049Z,59.49
2023-04-20T23:44:39.536Z,59.39
2023-04-20T23:47:07.100Z,59.41
2023-04-20T23:49:37.336Z,59.27
2023-04-20T23:52:05.759Z,59.27
2023-04-20T23:54:33.554Z,59.04
2023-04-20T23:57:01.247Z,59.13
2023-04-20T23:59:28.836Z,59.19
